createdAt,value
2018-09-19T00:02:07.830Z,100.00
2018-09-19T00:04:37.067Z,100.00
2018-09-19T00:07:06.297Z,100.00
2018-09-19T00:09:35.527Z,100.00
2018-09-19T00:12:04.793Z,100.00
2018-09-19T00:14:33.977Z,100.00
2018-09-19T00:17:03.480Z,100.00
2018-09-19T00:19:32.690Z,100.00
2018-09-19T00:22:01.945Z,100.00
2018-09-19T00:24:31.325Z,100.00
2018-09-19T00:27:00.543Z,100.00
2018-09-19T00:29:29.753Z,100.00
2018-09-19T00:31:58.974Z,100.00
2018-09-19T00:34:28.235Z,100.00
2018-09-19T00:36:57.442Z,100.00
2018-09-19T00:39:26.681Z,100.00
2018-09-19T00:41:55.915Z,100.00
2018-09-19T00:44:25.183Z,100.00
2018-09-19T00:46:54.415Z,100.00
2018-09-19T00:49:23.639Z,100.00
2018-09-19T00:51:52.859Z,100.00
2018-09-19T00:54:22.085Z,100.00
2018-09-19T00:56:51.311Z,100.00
2018-09-19T00:59:20.574Z,100.00
2018-09-19T01:01:49.853Z,100.00
2018-09-19T01:04:19.081Z,100.00
2018-09-19T01:06:48.319Z,100.00
2018-09-19T01:09:17.561Z,100.00
2018-09-19T01:11:46.793Z,100.00
2018-09-19T01:14:16.004Z,100.00
2018-09-19T01:16:45.225Z,100.00
2018-09-19T01:19:14.470Z,100.00
2018-09-19T01:21:43.700Z,100.00
2018-09-19T01:24:12.943Z,100.00
2018-09-19T01:26:42.174Z,100.00
2018-09-19T01:29:11.397Z,100.00
2018-09-19T01:31:40.666Z,100.00
2018-09-19T01:34:09.967Z,100.00
2018-09-19T01:36:39.151Z,100.00
2018-09-19T01:39:08.493Z,100.00
2018-09-19T01:41:37.740Z,100.00
2018-09-19T01:44:06.984Z,100.00
2018-09-19T01:46:36.217Z,100.00
2018-09-19T01:49:05.485Z,100.00
2018-09-19T01:51:34.711Z,100.00
2018-09-19T01:54:03.954Z,100.00
2018-09-19T01:56:33.167Z,100.00
2018-09-19T01:59:02.793Z,100.00
2018-09-19T02:01:32.045Z,100.00
2018-09-19T02:04:01.266Z,100.00
2018-09-19T02:06:30.499Z,100.00
2018-09-19T02:08:59.737Z,100.00
2018-09-19T02:11:28.946Z,100.00
2018-09-19T02:13:58.200Z,100.00
2018-09-19T02:16:27.419Z,100.00
2018-09-19T02:18:56.635Z,100.00
2018-09-19T02:21:25.877Z,100.00
2018-09-19T02:23:55.091Z,100.00
2018-09-19T02:26:24.314Z,100.00
2018-09-19T02:28:53.540Z,100.00
2018-09-19T02:31:22.781Z,100.00
2018-09-19T02:33:52.013Z,100.00
2018-09-19T02:36:27.043Z,100.00
2018-09-19T02:38:57.455Z,100.00
2018-09-19T02:41:26.696Z,100.00
2018-09-19T02:43:56.031Z,100.00
2018-09-19T02:46:25.254Z,100.00
2018-09-19T02:48:54.485Z,100.00
2018-09-19T02:51:23.728Z,100.00
2018-09-19T02:53:52.943Z,100.00
2018-09-19T02:56:22.168Z,100.00
2018-09-19T02:58:51.381Z,100.00
2018-09-19T03:01:20.598Z,100.00
2018-09-19T03:03:49.818Z,100.00
2018-09-19T03:06:19.053Z,100.00
2018-09-19T03:08:48.283Z,100.00
2018-09-19T03:11:17.525Z,100.00
2018-09-19T03:13:46.762Z,100.00
2018-09-19T03:16:15.986Z,100.00
2018-09-19T03:18:45.215Z,100.00
2018-09-19T03:21:14.446Z,100.00
2018-09-19T03:23:43.687Z,100.00
2018-09-19T03:26:12.924Z,100.00
2018-09-19T03:28:42.183Z,100.00
2018-09-19T03:31:11.419Z,100.00
2018-09-19T03:33:40.636Z,100.00
2018-09-19T03:36:09.873Z,100.00
2018-09-19T03:38:39.088Z,100.00
2018-09-19T03:41:08.362Z,100.00
2018-09-19T03:43:37.591Z,100.00
2018-09-19T03:46:06.872Z,100.00
2018-09-19T03:48:36.090Z,100.00
2018-09-19T03:51:05.501Z,100.00
2018-09-19T03:53:34.744Z,100.00
2018-09-19T03:56:03.997Z,100.00
2018-09-19T03:58:33.232Z,100.00
2018-09-19T04:01:02.886Z,100.00
2018-09-19T04:03:32.150Z,100.00
2018-09-19T04:06:01.379Z,100.00
2018-09-19T04:08:31.326Z,100.00
2018-09-19T04:11:00.552Z,100.00
2018-09-19T04:13:36.230Z,100.00
2018-09-19T04:16:05.458Z,100.00
2018-09-19T04:18:34.682Z,100.00
2018-09-19T04:21:03.910Z,100.00
2018-09-19T04:23:33.138Z,100.00
2018-09-19T04:26:02.392Z,100.00
2018-09-19T04:28:31.643Z,100.00
2018-09-19T04:31:00.918Z,100.00
2018-09-19T04:33:30.163Z,100.00
2018-09-19T04:36:00.127Z,100.00
2018-09-19T04:38:29.366Z,100.00
2018-09-19T04:40:58.602Z,100.00
2018-09-19T04:43:27.864Z,100.00
2018-09-19T04:45:57.122Z,100.00
2018-09-19T04:48:26.369Z,100.00
2018-09-19T04:50:55.594Z,100.00
2018-09-19T04:53:24.864Z,100.00
2018-09-19T04:55:54.070Z,100.00
2018-09-19T04:58:23.323Z,100.00
2018-09-19T05:00:52.588Z,100.00
2018-09-19T05:03:21.822Z,100.00
2018-09-19T05:05:51.153Z,100.00
2018-09-19T05:08:20.280Z,100.00
2018-09-19T05:10:49.498Z,100.00
2018-09-19T05:13:18.730Z,100.00
2018-09-19T05:15:48.068Z,100.00
2018-09-19T05:18:17.365Z,100.00
2018-09-19T05:20:46.614Z,100.00
2018-09-19T05:23:15.834Z,100.00
2018-09-19T05:25:45.089Z,100.00
2018-09-19T05:28:14.341Z,100.00
2018-09-19T05:30:43.598Z,100.00
2018-09-19T05:33:12.894Z,100.00
2018-09-19T05:35:42.230Z,100.00
2018-09-19T05:38:11.448Z,100.00
2018-09-19T05:40:40.662Z,100.00
2018-09-19T05:43:09.899Z,100.00
2018-09-19T05:45:39.127Z,100.00
2018-09-19T05:48:08.394Z,100.00
2018-09-19T05:50:37.620Z,100.00
2018-09-19T05:53:06.863Z,100.00
2018-09-19T05:55:36.088Z,100.00
2018-09-19T05:58:05.323Z,100.00
2018-09-19T06:00:34.537Z,99.87
2018-09-19T06:03:03.751Z,82.20
2018-09-19T06:05:32.973Z,68.34
2018-09-19T06:08:02.261Z,64.65
2018-09-19T06:10:31.473Z,59.19
2018-09-19T06:13:00.797Z,54.22
2018-09-19T06:15:29.938Z,52.08
2018-09-19T06:17:59.188Z,47.26
2018-09-19T06:20:28.390Z,48.50
2018-09-19T06:22:57.671Z,50.70
2018-09-19T06:25:26.947Z,49.63
2018-09-19T06:27:56.193Z,47.60
2018-09-19T06:30:25.424Z,47.60
2018-09-19T06:32:54.710Z,48.14
2018-09-19T06:35:23.937Z,47.12
2018-09-19T06:37:53.178Z,44.76
2018-09-19T06:40:22.437Z,39.76
2018-09-19T06:42:51.646Z,42.88
2018-09-19T06:45:20.942Z,41.37
2018-09-19T06:47:50.239Z,39.03
2018-09-19T06:50:19.479Z,39.54
2018-09-19T06:52:48.702Z,37.87
2018-09-19T06:55:17.934Z,35.71
2018-09-19T06:57:47.224Z,34.23
2018-09-19T07:00:16.475Z,37.10
2018-09-19T07:02:45.745Z,37.02
2018-09-19T07:05:14.998Z,36.77
2018-09-19T07:07:44.250Z,37.33
2018-09-19T07:10:13.471Z,40.48
2018-09-19T07:12:42.708Z,39.23
2018-09-19T07:15:11.915Z,39.45
2018-09-19T07:17:41.130Z,36.92
2018-09-19T07:20:10.463Z,36.81
2018-09-19T07:22:39.699Z,40.56
2018-09-19T07:25:08.960Z,40.86
2018-09-19T07:27:38.158Z,40.61
2018-09-19T07:30:07.644Z,37.56
2018-09-19T07:32:36.974Z,34.65
2018-09-19T07:35:06.326Z,40.16
2018-09-19T07:37:35.563Z,47.69
2018-09-19T07:40:04.800Z,50.92
2018-09-19T07:42:34.158Z,51.09
2018-09-19T07:45:03.438Z,54.02
2018-09-19T07:47:32.650Z,58.64
2018-09-19T07:50:01.878Z,57.57
2018-09-19T07:52:31.107Z,54.03
2018-09-19T07:55:00.333Z,52.93
2018-09-19T07:57:29.554Z,46.95
2018-09-19T07:59:58.796Z,39.60
2018-09-19T08:02:28.023Z,39.81
2018-09-19T08:04:57.292Z,38.96
2018-09-19T08:07:26.506Z,36.58
2018-09-19T08:09:55.748Z,37.48
2018-09-19T08:12:24.949Z,34.05
2018-09-19T08:14:54.188Z,32.23
2018-09-19T08:17:23.406Z,33.52
2018-09-19T08:19:52.902Z,37.22
2018-09-19T08:22:22.112Z,33.26
2018-09-19T08:24:51.415Z,36.00
2018-09-19T08:27:20.692Z,35.60
2018-09-19T08:29:49.990Z,39.79
2018-09-19T08:32:19.316Z,35.51
2018-09-19T08:34:48.536Z,36.59
2018-09-19T08:37:17.842Z,33.44
2018-09-19T08:39:47.067Z,40.11
2018-09-19T08:42:16.308Z,42.97
2018-09-19T08:44:45.551Z,37.85
2018-09-19T08:47:14.766Z,35.28
2018-09-19T08:49:44.022Z,35.05
2018-09-19T08:52:13.264Z,31.57
2018-09-19T08:54:42.509Z,29.76
2018-09-19T08:57:11.791Z,32.16
2018-09-19T08:59:40.991Z,29.91
2018-09-19T09:02:10.235Z,31.97
2018-09-19T09:04:39.455Z,31.01
2018-09-19T09:07:08.683Z,28.94
2018-09-19T09:09:37.947Z,29.60
2018-09-19T09:12:07.236Z,31.74
2018-09-19T09:14:36.442Z,30.13
2018-09-19T09:17:05.819Z,28.80
2018-09-19T09:19:35.093Z,32.99
2018-09-19T09:22:04.333Z,31.37
2018-09-19T09:24:33.573Z,27.60
2018-09-19T09:27:03.634Z,28.37
2018-09-19T09:29:32.748Z,29.15
2018-09-19T09:32:02.047Z,28.28
2018-09-19T09:34:31.323Z,29.61
2018-09-19T09:37:00.551Z,30.16
2018-09-19T09:39:30.015Z,29.21
2018-09-19T09:41:59.250Z,26.88
2018-09-19T09:44:28.454Z,29.21
2018-09-19T09:46:57.684Z,28.61
2018-09-19T09:49:26.914Z,30.41
2018-09-19T09:51:56.142Z,28.62
2018-09-19T09:54:25.378Z,31.50
2018-09-19T09:56:54.586Z,31.17
2018-09-19T09:59:23.829Z,30.30
2018-09-19T10:01:53.042Z,30.74
2018-09-19T10:04:22.393Z,29.46
2018-09-19T10:06:51.738Z,32.95
2018-09-19T10:09:20.943Z,29.69
2018-09-19T10:11:50.186Z,31.85
2018-09-19T10:14:19.449Z,29.33
2018-09-19T10:16:48.687Z,26.63
2018-09-19T10:19:17.987Z,27.48
2018-09-19T10:21:47.206Z,27.69
2018-09-19T10:24:16.440Z,26.44
2018-09-19T10:26:45.654Z,27.03
2018-09-19T10:29:14.910Z,30.24
2018-09-19T10:31:44.130Z,25.28
2018-09-19T10:34:13.518Z,24.53
2018-09-19T10:36:42.743Z,30.05
2018-09-19T10:39:11.944Z,30.19
2018-09-19T10:41:41.212Z,28.66
2018-09-19T10:44:10.439Z,25.82
2018-09-19T10:46:39.666Z,27.28
2018-09-19T10:49:08.942Z,27.73
2018-09-19T10:51:38.186Z,26.64
2018-09-19T10:54:07.418Z,23.52
2018-09-19T10:56:36.643Z,23.86
2018-09-19T10:59:05.857Z,26.19
2018-09-19T11:01:35.199Z,29.10
2018-09-19T11:04:04.420Z,25.62
2018-09-19T11:06:33.637Z,21.65
2018-09-19T11:09:03.707Z,24.28
2018-09-19T11:11:32.938Z,23.23
2018-09-19T11:14:02.177Z,27.42
2018-09-19T11:16:31.399Z,28.17
2018-09-19T11:19:00.652Z,30.28
2018-09-19T11:21:30.064Z,30.65
2018-09-19T11:23:59.279Z,30.50
2018-09-19T11:26:29.774Z,31.86
2018-09-19T11:28:58.975Z,31.32
2018-09-19T11:31:28.210Z,31.00
2018-09-19T11:33:57.437Z,28.10
2018-09-19T11:36:26.698Z,25.28
2018-09-19T11:38:55.923Z,29.65
2018-09-19T11:41:25.151Z,30.32
2018-09-19T11:43:54.402Z,31.04
2018-09-19T11:46:23.653Z,26.05
2018-09-19T11:48:52.896Z,26.77
2018-09-19T11:51:22.154Z,27.00
2018-09-19T11:53:51.383Z,26.54
2018-09-19T11:56:20.641Z,24.06
2018-09-19T11:58:49.859Z,26.20
2018-09-19T12:01:19.118Z,27.17
2018-09-19T12:03:48.366Z,31.06
2018-09-19T12:06:17.586Z,27.08
2018-09-19T12:08:46.845Z,28.99
2018-09-19T12:11:16.020Z,31.45
2018-09-19T12:13:45.247Z,27.90
2018-09-19T12:16:14.751Z,31.17
2018-09-19T12:18:43.995Z,26.99
2018-09-19T12:21:13.211Z,29.80
2018-09-19T12:23:42.438Z,32.35
2018-09-19T12:26:11.692Z,34.04
2018-09-19T12:28:40.906Z,27.52
2018-09-19T12:31:10.131Z,27.82
2018-09-19T12:33:39.354Z,29.67
2018-09-19T12:36:08.583Z,30.25
2018-09-19T12:38:39.028Z,27.77
2018-09-19T12:41:08.275Z,33.93
2018-09-19T12:43:37.635Z,27.28
2018-09-19T12:46:06.877Z,31.59
2018-09-19T12:48:36.114Z,32.03
2018-09-19T12:51:05.367Z,33.55
2018-09-19T12:53:34.611Z,33.12
2018-09-19T12:56:03.848Z,34.07
2018-09-19T12:58:33.133Z,30.82
2018-09-19T13:01:03.743Z,28.76
2018-09-19T13:03:34.203Z,31.47
2018-09-19T13:06:03.443Z,30.84
2018-09-19T13:08:32.711Z,27.12
2018-09-19T13:11:02.108Z,29.98
2018-09-19T13:13:31.331Z,27.07
2018-09-19T13:16:00.574Z,33.69
2018-09-19T13:18:29.838Z,36.76
2018-09-19T13:20:59.074Z,37.99
2018-09-19T13:23:28.318Z,36.06
2018-09-19T13:25:57.572Z,38.47
2018-09-19T13:28:26.837Z,37.88
2018-09-19T13:30:56.074Z,36.96
2018-09-19T13:33:25.319Z,36.16
2018-09-19T13:35:54.558Z,36.59
2018-09-19T13:38:23.781Z,36.95
2018-09-19T13:40:53.050Z,38.58
2018-09-19T13:43:22.267Z,37.95
2018-09-19T13:45:51.506Z,35.81
2018-09-19T13:48:20.741Z,38.98
2018-09-19T13:51:23.299Z,37.84
2018-09-19T13:53:52.554Z,39.67
2018-09-19T13:56:22.078Z,40.24
2018-09-19T13:58:51.353Z,36.31
2018-09-19T14:01:20.543Z,37.11
2018-09-19T14:03:49.822Z,37.98
2018-09-19T14:06:19.033Z,40.78
2018-09-19T14:08:48.274Z,37.06
2018-09-19T14:11:17.532Z,37.24
2018-09-19T14:13:46.760Z,41.19
2018-09-19T14:16:15.967Z,36.93
2018-09-19T14:18:45.281Z,37.06
2018-09-19T14:21:14.515Z,38.34
2018-09-19T14:24:14.391Z,36.81
2018-09-19T14:26:43.622Z,37.03
2018-09-19T14:29:12.843Z,40.95
2018-09-19T14:31:42.084Z,37.78
2018-09-19T14:34:11.313Z,36.98
2018-09-19T14:36:40.542Z,38.56
2018-09-19T14:39:09.802Z,42.11
2018-09-19T14:41:39.037Z,41.74
2018-09-19T14:44:08.258Z,40.49
2018-09-19T14:46:37.682Z,42.28
2018-09-19T14:49:07.474Z,41.68
2018-09-19T14:51:36.798Z,40.59
2018-09-19T14:54:07.240Z,42.85
2018-09-19T14:56:36.410Z,39.58
2018-09-19T14:59:05.689Z,40.36
2018-09-19T15:01:34.923Z,38.66
2018-09-19T15:04:05.530Z,40.65
2018-09-19T15:06:34.747Z,42.76
2018-09-19T15:09:04.731Z,42.82
2018-09-19T15:11:33.958Z,41.78
2018-09-19T15:14:03.183Z,43.60
2018-09-19T15:21:30.168Z,42.71
2018-09-19T15:23:59.368Z,45.17
2018-09-19T15:26:29.750Z,42.98
2018-09-19T15:28:58.966Z,44.88
2018-09-19T15:31:28.286Z,45.21
2018-09-19T15:33:57.547Z,45.79
2018-09-19T15:36:26.811Z,46.14
2018-09-19T15:38:56.112Z,48.21
2018-09-19T15:41:25.358Z,50.83
2018-09-19T15:43:54.655Z,49.84
2018-09-19T15:46:23.971Z,50.80
2018-09-19T15:48:53.214Z,47.43
2018-09-19T15:51:22.451Z,50.16
2018-09-19T15:53:51.774Z,49.05
2018-09-19T15:56:20.994Z,52.53
2018-09-19T15:58:50.222Z,53.42
2018-09-19T16:01:19.554Z,53.79
2018-09-19T16:03:48.779Z,55.56
2018-09-19T16:06:18.045Z,56.08
2018-09-19T16:08:47.262Z,55.51
2018-09-19T16:11:16.525Z,55.56
2018-09-19T16:13:45.795Z,56.85
2018-09-19T16:16:15.046Z,57.70
2018-09-19T16:18:44.306Z,58.45
2018-09-19T16:21:13.535Z,58.81
2018-09-19T16:23:43.016Z,59.62
2018-09-19T16:26:12.481Z,59.30
2018-09-19T16:28:41.719Z,59.92
2018-09-19T16:31:11.402Z,61.89
2018-09-19T16:33:40.623Z,61.23
2018-09-19T16:36:09.856Z,61.89
2018-09-19T16:38:39.086Z,62.84
2018-09-19T16:41:08.323Z,61.82
2018-09-19T16:43:37.596Z,62.69
2018-09-19T16:48:34.762Z,66.19
2018-09-19T16:51:04.120Z,67.07
2018-09-19T16:53:33.461Z,68.30
2018-09-19T16:56:02.689Z,70.55
2018-09-19T16:58:31.926Z,68.73
2018-09-19T17:01:01.151Z,74.20
2018-09-19T17:03:30.357Z,74.36
2018-09-19T17:05:59.598Z,74.50
2018-09-19T17:08:28.834Z,71.21
2018-09-19T17:10:58.074Z,70.51
2018-09-19T17:13:27.306Z,71.37
2018-09-19T17:15:56.538Z,71.69
2018-09-19T17:18:26.016Z,75.49
2018-09-19T17:20:55.239Z,78.07
2018-09-19T17:23:24.478Z,76.27
2018-09-19T17:25:53.769Z,79.95
2018-09-19T17:28:22.966Z,78.79
2018-09-19T17:30:52.214Z,79.82
2018-09-19T17:33:21.500Z,79.92
2018-09-19T17:35:50.680Z,80.77
2018-09-19T17:38:19.971Z,81.73
2018-09-19T17:40:49.338Z,82.88
2018-09-19T17:43:18.574Z,84.84
2018-09-19T17:45:47.999Z,84.41
2018-09-19T17:48:17.422Z,84.81
2018-09-19T17:50:46.637Z,86.82
2018-09-19T17:53:15.868Z,87.73
2018-09-19T17:55:45.106Z,89.67
2018-09-19T17:58:14.393Z,90.18
2018-09-19T18:00:43.652Z,87.87
2018-09-19T18:03:12.954Z,88.36
2018-09-19T18:05:42.257Z,88.87
2018-09-19T18:08:11.513Z,87.66
2018-09-19T18:10:40.715Z,90.67
2018-09-19T18:13:09.994Z,89.71
2018-09-19T18:15:39.231Z,91.35
2018-09-19T18:18:08.480Z,90.99
2018-09-19T18:20:37.738Z,93.33
2018-09-19T18:23:07.000Z,94.13
2018-09-19T18:25:36.368Z,95.08
2018-09-19T18:28:05.626Z,95.63
2018-09-19T18:30:34.862Z,95.42
2018-09-19T18:33:04.732Z,96.25
2018-09-19T18:35:34.014Z,97.17
2018-09-19T18:38:03.278Z,97.33
2018-09-19T18:40:32.524Z,96.86
2018-09-19T18:43:01.738Z,97.21
2018-09-19T18:45:31.163Z,97.29
2018-09-19T18:48:00.806Z,95.57
2018-09-19T18:50:31.291Z,97.20
2018-09-19T18:53:00.559Z,98.45
2018-09-19T18:55:29.863Z,98.16
2018-09-19T18:57:59.099Z,98.59
2018-09-19T19:00:28.326Z,99.27
2018-09-19T19:02:57.592Z,99.15
2018-09-19T19:05:26.851Z,99.65
2018-09-19T19:07:56.155Z,99.70
2018-09-19T19:10:25.331Z,100.00
2018-09-19T19:12:54.538Z,99.37
2018-09-19T19:15:23.790Z,100.00
2018-09-19T19:17:53.022Z,99.93
2018-09-19T19:20:22.252Z,99.81
2018-09-19T19:22:51.475Z,100.00
2018-09-19T19:25:20.715Z,100.00
2018-09-19T19:27:49.943Z,100.00
2018-09-19T19:30:19.481Z,100.00
2018-09-19T19:32:48.695Z,100.00
2018-09-19T19:35:17.928Z,100.00
2018-09-19T19:37:47.276Z,100.00
2018-09-19T19:40:16.419Z,100.00
2018-09-19T19:42:45.646Z,100.00
2018-09-19T19:45:15.039Z,100.00
2018-09-19T19:47:44.261Z,100.00
2018-09-19T19:50:14.619Z,100.00
2018-09-19T19:52:43.894Z,100.00
2018-09-19T19:55:13.114Z,100.00
2018-09-19T19:57:42.392Z,100.00
2018-09-19T20:00:11.595Z,100.00
2018-09-19T20:02:40.982Z,100.00
2018-09-19T20:05:10.202Z,100.00
2018-09-19T20:07:39.451Z,100.00
2018-09-19T20:10:08.690Z,100.00
2018-09-19T20:12:38.140Z,100.00
2018-09-19T20:15:07.356Z,100.00
2018-09-19T20:17:36.595Z,100.00
2018-09-19T20:20:05.882Z,100.00
2018-09-19T20:22:35.122Z,100.00
2018-09-19T20:25:04.538Z,100.00
2018-09-19T20:27:33.811Z,100.00
2018-09-19T20:30:03.035Z,100.00
2018-09-19T20:32:32.283Z,100.00
2018-09-19T20:35:01.504Z,100.00
2018-09-19T20:37:30.754Z,100.00
2018-09-19T20:40:00.139Z,100.00
2018-09-19T20:42:29.355Z,100.00
2018-09-19T20:44:58.602Z,100.00
2018-09-19T20:47:27.847Z,100.00
2018-09-19T20:49:57.063Z,100.00
2018-09-19T20:52:26.287Z,100.00
2018-09-19T20:54:55.702Z,100.00
2018-09-19T20:57:25.038Z,100.00
2018-09-19T20:59:54.309Z,100.00
2018-09-19T21:02:23.544Z,100.00
2018-09-19T21:04:52.779Z,100.00
2018-09-19T21:07:22.023Z,100.00
2018-09-19T21:09:51.266Z,100.00
2018-09-19T21:12:20.515Z,100.00
2018-09-19T21:14:49.810Z,100.00
2018-09-19T21:17:19.034Z,100.00
2018-09-19T21:19:48.414Z,100.00
2018-09-19T21:22:17.790Z,100.00
2018-09-19T21:24:46.881Z,100.00
2018-09-19T21:27:16.226Z,100.00
2018-09-19T21:29:45.469Z,100.00
2018-09-19T21:32:14.727Z,100.00
2018-09-19T21:34:43.939Z,100.00
2018-09-19T21:37:13.178Z,100.00
2018-09-19T21:39:42.404Z,100.00
2018-09-19T21:42:11.642Z,100.00
2018-09-19T21:44:40.861Z,100.00
2018-09-19T21:47:10.095Z,100.00
2018-09-19T21:49:39.339Z,100.00
2018-09-19T21:52:08.567Z,100.00
2018-09-19T21:54:37.822Z,100.00
2018-09-19T21:57:07.151Z,100.00
2018-09-19T21:59:36.936Z,100.00
2018-09-19T22:02:06.210Z,100.00
2018-09-19T22:04:35.455Z,100.00
2018-09-19T22:07:04.699Z,100.00
2018-09-19T22:09:33.947Z,100.00
2018-09-19T22:12:03.162Z,100.00
2018-09-19T22:14:32.395Z,100.00
2018-09-19T22:17:01.651Z,100.00
2018-09-19T22:19:30.887Z,100.00
2018-09-19T22:22:00.119Z,100.00
2018-09-19T22:24:29.350Z,100.00
2018-09-19T22:26:58.583Z,100.00
2018-09-19T22:29:27.837Z,100.00
2018-09-19T22:31:57.089Z,100.00
2018-09-19T22:34:26.357Z,100.00
2018-09-19T22:36:55.629Z,100.00
2018-09-19T22:39:24.855Z,100.00
2018-09-19T22:41:54.082Z,100.00
2018-09-19T22:44:23.302Z,100.00
2018-09-19T22:46:52.778Z,100.00
2018-09-19T22:49:22.018Z,100.00
2018-09-19T22:51:51.283Z,100.00
2018-09-19T22:54:20.618Z,100.00
2018-09-19T22:56:49.859Z,100.00
2018-09-19T22:59:19.078Z,100.00
2018-09-19T23:01:48.324Z,100.00
2018-09-19T23:04:17.558Z,100.00
2018-09-19T23:06:46.809Z,100.00
2018-09-19T23:09:16.038Z,100.00
2018-09-19T23:11:46.519Z,100.00
2018-09-19T23:14:15.779Z,100.00
2018-09-19T23:16:45.018Z,100.00
2018-09-19T23:19:14.279Z,100.00
2018-09-19T23:21:43.491Z,100.00
2018-09-19T23:24:13.346Z,100.00
2018-09-19T23:26:42.575Z,100.00
2018-09-19T23:29:11.804Z,100.00
2018-09-19T23:31:41.026Z,100.00
2018-09-19T23:34:10.254Z,100.00
2018-09-19T23:36:39.484Z,100.00
2018-09-19T23:39:10.386Z,100.00
2018-09-19T23:41:39.615Z,100.00
2018-09-19T23:44:08.885Z,100.00
2018-09-19T23:46:38.111Z,100.00
2018-09-19T23:49:07.613Z,100.00
2018-09-19T23:51:36.874Z,100.00
2018-09-19T23:54:06.223Z,100.00
2018-09-19T23:56:35.439Z,100.00
2018-09-19T23:59:04.675Z,100.00
